EDT,Max TemperatureF,Mean TemperatureF,Min TemperatureF,Max Dew PointF,MeanDew PointF,Min DewpointF,Max Humidity, Mean Humidity, Min Humidity, Max Sea Level PressureIn, Mean Sea Level PressureIn, Min Sea Level PressureIn, Max VisibilityMiles, Mean VisibilityMiles, Min VisibilityMiles, Max Wind SpeedMPH, Mean Wind SpeedMPH, Max Gust SpeedMPH,PrecipitationIn, CloudCover, Events, WindDirDegrees
2013-3-1,28,24,21,27,21,18,93,88,80,29.90,29.84,29.73,10,7,1,14,10,20,0.00,8,,329
2013-3-2,21,19,17,19,16,12,93,87,74,29.89,29.87,29.84,10,6,1,14,8,21,0.00,8,,331
2013-3-3,21,19,17,18,15,12,93,83,74,29.89,29.84,29.81,9,4,0,20,11,25,0.00,8,,308
2013-3-4,21,19,17,19,16,12,93,85,79,30.02,29.97,29.89,10,9,4,16,10,23,0.00,8,,296
2013-3-5,33,25,17,21,19,12,100,78,56,30.03,29.94,29.79,10,10,5,14,6,17,0.00,4,,67
2013-3-6,37,32,26,27,22,18,80,69,48,30.09,29.95,29.78,10,10,10,13,10,18,0.00,5,,54
2013-3-7,32,30,28,28,28,27,93,89,80,30.23,30.16,30.08,10,7,1,13,6,17,0.01,8,,342
2013-3-8,33,30,26,27,22,18,93,75,52,30.37,30.32,30.23,10,9,1,16,10,24,0.01,5,,350
2013-3-9,44,30,17,28,22,16,100,69,39,30.37,30.29,30.17,10,8,0,9,3,,0.00,1,,93
2013-3-10,60,50,39,28,23,18,45,36,29,30.17,30.07,29.99,10,10,10,18,12,25,0.00,2,,176
2013-3-11,55,48,42,41,28,23,87,45,33,30.00,29.85,29.66,10,10,7,24,13,34,0.08,6,,170
2013-3-12,42,35,28,41,29,25,93,86,75,29.90,29.82,29.72,10,8,2,14,9,21,0.09,8,,260
2013-3-13,28,24,19,25,19,14,93,78,59,29.97,29.88,29.83,10,6,1,23,11,33,0.00,7,,250
2013-3-14,24,22,17,16,13,10,86,69,54,30.08,30.04,29.97,10,8,2,24,16,32,0.00,7,,288
2013-3-15,30,24,17,27,22,12,93,83,74,30.02,29.86,29.78,10,6,1,16,8,25,0.00,7,,254
2013-3-16,28,24,21,25,20,16,93,80,69,29.93,29.79,29.71,10,8,1,12,6,,0.00,8,,26
2013-3-17,26,20,15,19,13,9,100,71,50,30.22,30.10,29.94,10,9,1,12,6,16,0.00,4,,339
2013-3-18,30,24,19,28,18,9,93,75,55,30.19,29.94,29.66,10,9,1,22,12,32,0.01,5,,138
2013-3-19,32,26,21,30,23,16,93,86,74,29.82,29.72,29.64,10,5,0,20,11,26,0.01,8,,240
2013-3-20,24,20,15,19,16,10,93,81,68,29.83,29.81,29.78,10,6,0,17,11,25,0.00,7,,254
2013-3-21,23,18,12,21,14,9,93,83,68,29.78,29.74,29.71,10,4,0,17,9,26,0.00,8,,254
2013-3-22,24,22,21,19,18,16,86,82,74,29.94,29.84,29.75,10,6,1,18,12,25,0.00,8,,280
2013-3-23,30,26,23,21,20,19,86,76,64,30.01,29.96,29.92,10,10,10,16,8,21,0.00,8,,284
2013-3-24,33,26,19,21,19,16,100,72,48,30.00,29.81,29.59,10,9,0,14,6,20,0.00,4,,51
2013-3-25,33,30,26,28,24,19,93,79,64,29.71,29.58,29.52,10,7,0,14,9,20,0.00,7,,54
2013-3-26,39,34,28,27,24,21,86,73,52,29.97,29.85,29.72,10,10,10,15,7,23,0.00,8,,299
2013-3-27,33,30,28,28,25,19,93,81,65,30.07,30.01,29.96,10,6,1,20,12,25,0.00,7,,271
2013-3-28,33,30,28,30,28,27,100,89,80,30.21,30.13,30.03,10,7,0,16,9,17,0.00,8,,295
2013-3-29,42,36,30,28,25,19,93,68,42,30.20,30.18,30.16,10,10,10,16,6,24,0.00,5,,268
2013-3-30,44,34,24,25,19,18,74,55,36,30.20,30.13,30.03,10,10,10,9,4,,0.00,0,,227
2013-3-31,48,42,37,39,28,18,93,64,42,30.02,29.79,29.64,10,10,5,15,8,24,0.02,4,,185